Time;durP1;ratioP1;P1;durP2;ratioP2;P2;SDS_P1;SDS_P2;PMS_P1;PMS_P2;Temp;Humidity;BMP_temperature;BMP_pressure;BME280_temperature;BME280_humidity;BME280_pressure;Samples;Min_cycle;Max_cycle;Signal;HPM_P1;HPM_P2
2022/04/11 00:00:44;;;;;;;14.25;12.65;;;;;;;7.40;57.71;101809.78;5084184;28;20028;-69
2022/04/11 00:03:12;;;;;;;19.30;13.15;;;;;;;7.40;58.03;101811.59;5076423;28;20055;-66
2022/04/11 00:05:38;;;;;;;20.92;13.45;;;;;;;7.41;58.08;101814.19;5085912;28;20036;-68
2022/04/11 00:08:04;;;;;;;21.33;14.50;;;;;;;7.37;57.24;101809.91;5071639;28;20036;-67
2022/04/11 00:10:30;;;;;;;25.20;15.57;;;;;;;7.32;58.21;101805.69;5080789;28;20412;-67
2022/04/11 00:13:03;;;;;;;23.15;15.02;;;;;;;7.26;58.25;101799.69;5080789;28;20035;-67
2022/04/11 00:15:33;;;;;;;22.25;13.63;;;;;;;7.25;58.46;101789.16;5088378;28;20032;-68
2022/04/11 00:18:01;;;;;;;27.77;15.48;;;;;;;7.30;58.06;101796.94;5077476;28;20081;-67
2022/04/11 00:20:27;;;;;;;23.38;14.98;;;;;;;7.28;58.12;101797.00;5080499;28;20162;-68
2022/04/11 00:22:55;;;;;;;31.92;15.77;;;;;;;7.20;58.13;101793.72;5075285;28;20131;-68
2022/04/11 00:25:22;;;;;;;33.40;15.43;;;;;;;7.22;58.22;101799.84;5077552;28;20020;-68
2022/04/11 00:27:47;;;;;;;28.20;14.15;;;;;;;7.25;58.37;101782.06;5055572;28;20020;-68
2022/04/11 00:30:16;;;;;;;32.30;15.95;;;;;;;7.24;58.66;101782.16;5057033;28;20075;-67
2022/04/11 00:32:44;;;;;;;29.60;15.55;;;;;;;7.02;58.99;101785.50;5071401;28;20287;-68
2022/04/11 00:35:13;;;;;;;29.42;15.50;;;;;;;7.07;59.46;101785.34;5071262;28;20036;-68
2022/04/11 00:37:39;;;;;;;33.03;15.35;;;;;;;7.07;59.69;101782.72;5069695;28;20100;-68
2022/04/11 00:40:09;;;;;;;25.48;14.60;;;;;;;7.08;59.87;101781.78;5070206;28;20025;-67
2022/04/11 00:42:37;;;;;;;38.78;16.13;;;;;;;7.12;59.34;101770.19;5069380;28;20043;-67
2022/04/11 00:45:05;;;;;;;33.50;16.33;;;;;;;7.14;59.28;101775.41;5071385;28;20028;-68
2022/04/11 00:47:30;;;;;;;31.13;15.20;;;;;;;7.12;59.01;101769.31;5071501;28;20026;-68
2022/04/11 00:50:03;;;;;;;37.58;16.50;;;;;;;7.04;58.84;101767.81;5069624;28;20399;-68
2022/04/11 00:52:31;;;;;;;34.63;16.27;;;;;;;7.09;59.06;101761.47;5068378;28;20094;-68
2022/04/11 00:55:00;;;;;;;34.33;17.48;;;;;;;7.11;58.22;101760.50;5069704;28;20548;-68
2022/04/11 00:57:27;;;;;;;35.63;14.45;;;;;;;7.10;59.08;101758.78;5070474;28;20047;-68
2022/04/11 00:59:53;;;;;;;37.47;15.90;;;;;;;7.08;58.67;101751.81;5071172;28;20024;-68
2022/04/11 01:02:18;;;;;;;33.20;15.68;;;;;;;6.99;58.78;101755.66;5070812;28;20032;-68
2022/04/11 01:04:46;;;;;;;36.15;15.90;;;;;;;7.08;58.10;101757.97;5070340;28;20057;-68
2022/04/11 01:07:12;;;;;;;36.63;15.48;;;;;;;7.05;58.03;101756.28;5070445;28;20044;-68
2022/04/11 01:09:38;;;;;;;38.38;15.50;;;;;;;6.95;57.46;101752.25;5080304;28;20043;-68
2022/04/11 01:12:03;;;;;;;31.90;15.57;;;;;;;7.03;58.17;101752.84;5070832;28;20502;-68
2022/04/11 01:14:29;;;;;;;35.17;15.80;;;;;;;7.06;57.71;101751.91;5077325;28;20449;-68
2022/04/11 01:16:58;;;;;;;32.67;14.52;;;;;;;7.00;58.04;101758.25;5075296;28;20020;-67
2022/04/11 01:19:29;;;;;;;29.85;14.32;;;;;;;7.06;58.12;101749.25;5072698;28;20119;-67
2022/04/11 01:21:56;;;;;;;27.63;14.43;;;;;;;7.00;57.74;101750.31;5081212;28;20028;-68
2022/04/11 01:24:22;;;;;;;27.25;13.65;;;;;;;7.02;58.37;101744.97;5052592;28;20500;-67
2022/04/11 01:26:50;;;;;;;32.10;13.80;;;;;;;6.98;58.33;101744.22;5070973;28;20028;-68
2022/04/11 01:29:19;;;;;;;30.20;14.15;;;;;;;6.99;58.09;101748.56;5071835;28;20473;-68
2022/04/11 01:31:45;;;;;;;29.33;15.27;;;;;;;7.01;58.39;101751.19;5086665;28;20023;-68
2022/04/11 01:34:11;;;;;;;27.48;14.65;;;;;;;7.01;58.66;101751.19;5069357;28;20035;-68
2022/04/11 01:36:36;;;;;;;23.83;15.13;;;;;;;7.02;58.20;101747.59;5080598;28;20024;-68
2022/04/11 01:39:04;;;;;;;24.17;14.73;;;;;;;7.04;58.11;101751.06;5079639;28;20025;-67
2022/04/11 01:41:30;;;;;;;22.27;12.85;;;;;;;7.00;58.20;101747.66;5070137;28;20033;-68
2022/04/11 01:43:55;;;;;;;26.80;14.30;;;;;;;6.96;58.27;101751.31;5080280;28;20027;-68
2022/04/11 01:46:21;;;;;;;25.15;13.88;;;;;;;6.88;59.22;101758.63;5079438;28;20483;-68
2022/04/11 01:48:47;;;;;;;24.60;14.25;;;;;;;6.96;59.12;101753.97;5069426;28;20039;-68
2022/04/11 01:51:13;;;;;;;25.58;15.45;;;;;;;6.89;58.92;101757.75;5074827;28;20020;-68
2022/04/11 01:53:39;;;;;;;20.58;13.57;;;;;;;6.87;59.12;101754.28;5074790;28;20016;-68
2022/04/11 01:56:07;;;;;;;24.77;13.77;;;;;;;6.88;58.73;101757.78;5073262;28;20046;-67
2022/04/11 01:58:33;;;;;;;22.35;13.68;;;;;;;6.85;59.10;101745.50;5080350;28;20133;-68
2022/04/11 02:00:59;;;;;;;19.17;13.02;;;;;;;6.78;58.59;101734.28;5068801;28;20120;-68
2022/04/11 02:03:28;;;;;;;29.25;13.25;;;;;;;6.83;59.19;101745.59;5070023;28;20028;-67
2022/04/11 02:05:53;;;;;;;19.40;13.70;;;;;;;6.76;58.28;101746.69;5068803;28;20029;-68
2022/04/11 02:08:21;;;;;;;24.20;13.48;;;;;;;6.81;59.32;101743.91;5069137;28;20043;-68
2022/04/11 02:10:49;;;;;;;22.13;13.95;;;;;;;6.75;59.10;101742.31;5070287;28;20025;-68
2022/04/11 02:13:17;;;;;;;20.67;13.40;;;;;;;6.72;59.02;101738.91;5070395;28;20040;-68
2022/04/11 02:15:45;;;;;;;19.33;14.02;;;;;;;6.57;59.74;101732.34;5059402;28;20149;-68
2022/04/11 02:18:10;;;;;;;22.92;13.88;;;;;;;6.63;58.87;101732.16;5079637;28;20033;-68
2022/04/11 02:20:36;;;;;;;19.52;13.23;;;;;;;6.54;59.64;101728.03;5071741;28;20130;-68
2022/04/11 02:23:02;;;;;;;20.80;13.73;;;;;;;6.63;60.06;101734.78;5069987;28;20063;-67
2022/04/11 02:25:30;;;;;;;20.50;13.57;;;;;;;6.56;59.67;101739.41;5052334;28;20031;-68
2022/04/11 02:27:58;;;;;;;15.88;12.90;;;;;;;6.51;59.76;101745.75;5068982;28;20020;-67
2022/04/11 02:30:25;;;;;;;20.90;13.38;;;;;;;6.40;59.89;101745.22;5069666;28;20032;-67
2022/04/11 02:32:52;;;;;;;17.95;13.05;;;;;;;6.30;60.61;101737.59;5069694;28;20498;-67
2022/04/11 02:35:18;;;;;;;17.25;13.13;;;;;;;6.29;59.97;101738.47;5079388;28;20032;-68
2022/04/11 02:37:44;;;;;;;17.63;13.20;;;;;;;6.24;60.60;101732.50;5078183;28;20032;-68
2022/04/11 02:40:10;;;;;;;18.63;13.15;;;;;;;6.23;59.66;101745.75;5071730;28;20020;-68
2022/04/11 02:42:36;;;;;;;16.55;12.13;;;;;;;6.32;59.82;101743.72;5055838;28;20130;-68
2022/04/11 02:45:04;;;;;;;17.85;12.82;;;;;;;6.24;60.96;101736.94;5058135;28;20032;-67
2022/04/11 02:47:29;;;;;;;18.50;13.02;;;;;;;6.06;61.32;101725.13;5074791;28;20484;-67
2022/04/11 02:49:57;;;;;;;15.13;12.68;;;;;;;6.18;60.66;101731.81;5072766;28;20048;-68
2022/04/11 02:52:22;;;;;;;20.35;12.90;;;;;;;6.18;61.10;101745.00;5081213;28;20028;-68
2022/04/11 02:54:48;;;;;;;16.10;12.73;;;;;;;6.00;61.26;101735.88;5072485;28;20507;-67
2022/04/11 02:57:14;;;;;;;19.35;12.43;;;;;;;6.05;60.89;101739.25;5072044;28;20033;-68
2022/04/11 02:59:40;;;;;;;15.75;13.13;;;;;;;6.05;61.19;101728.69;5074326;28;20155;-67
2022/04/11 03:02:06;;;;;;;13.82;12.43;;;;;;;5.92;61.69;101739.56;5084087;28;20024;-68
2022/04/11 03:04:34;;;;;;;15.75;12.57;;;;;;;5.88;61.36;101731.78;5086599;28;20043;-67
2022/04/11 03:07:00;;;;;;;15.35;13.35;;;;;;;5.88;61.35;101724.75;5071445;28;20157;-68
2022/04/11 03:09:25;;;;;;;14.07;12.68;;;;;;;5.81;61.95;101723.19;5072891;28;20107;-68
2022/04/11 03:11:51;;;;;;;15.70;13.70;;;;;;;5.84;61.91;101724.88;5071840;28;20028;-67
2022/04/11 03:14:17;;;;;;;16.02;12.77;;;;;;;5.80;61.19;101720.59;5074822;28;20497;-67
2022/04/11 03:16:42;;;;;;;15.73;14.02;;;;;;;5.69;61.96;101729.69;5072638;28;20032;-68
2022/04/11 03:19:09;;;;;;;16.08;12.93;;;;;;;5.70;62.13;101714.69;5073346;28;20119;-68
2022/04/11 03:21:37;;;;;;;18.13;13.55;;;;;;;5.69;61.95;101716.47;5072757;28;20068;-67
2022/04/11 03:24:05;;;;;;;14.88;12.90;;;;;;;5.59;62.38;101725.59;5073008;28;20040;-67
2022/04/11 03:26:35;;;;;;;16.27;14.45;;;;;;;5.45;62.68;101722.47;5071594;28;20044;-68
2022/04/11 03:29:01;;;;;;;20.60;14.07;;;;;;;5.46;62.46;101724.19;5054878;28;20048;-68
2022/04/11 03:31:27;;;;;;;19.60;13.35;;;;;;;5.46;62.86;101716.28;5070925;28;20052;-68
2022/04/11 03:33:52;;;;;;;14.70;13.20;;;;;;;5.48;62.86;101719.75;5055099;28;20364;-68
2022/04/11 03:36:18;;;;;;;18.23;13.30;;;;;;;5.35;63.40;101719.19;5072219;28;20510;-68
2022/04/11 03:38:43;;;;;;;16.90;14.32;;;;;;;5.37;63.01;101720.03;5081292;28;20032;-67
2022/04/11 03:41:11;;;;;;;20.67;14.60;;;;;;;5.32;63.40;101726.31;5072079;28;20033;-68
2022/04/11 03:43:36;;;;;;;16.27;13.60;;;;;;;5.29;63.12;101724.63;5072571;28;20028;-68
2022/04/11 03:46:02;;;;;;;19.42;13.70;;;;;;;5.35;63.25;101727.09;5063297;28;20375;-68
2022/04/11 03:48:27;;;;;;;18.00;14.10;;;;;;;5.31;62.92;101727.25;5076494;28;20475;-68
2022/04/11 03:50:57;;;;;;;17.35;13.35;;;;;;;5.33;63.72;101721.03;5072999;28;20423;-68
2022/04/11 03:53:23;;;;;;;18.60;13.95;;;;;;;5.26;63.37;101722.09;5085086;28;20036;-68
2022/04/11 03:55:51;;;;;;;20.30;14.57;;;;;;;5.21;63.21;101731.91;5077562;28;20857;-67
2022/04/11 03:58:19;;;;;;;16.83;13.63;;;;;;;5.24;63.71;101737.97;5072065;28;20027;-68
2022/04/11 04:00:44;;;;;;;15.93;14.18;;;;;;;5.26;64.27;101732.63;5079946;28;20025;-67
2022/04/11 04:03:12;;;;;;;15.95;14.25;;;;;;;5.22;63.45;101731.00;5039088;28;20032;-68
2022/04/11 04:05:45;;;;;;;16.73;13.73;;;;;;;5.21;63.52;101727.50;5085786;28;20081;-68
2022/04/11 04:08:11;;;;;;;17.90;14.75;;;;;;;5.10;64.12;101729.53;5073171;28;20043;-68
2022/04/11 04:10:38;;;;;;;17.20;14.10;;;;;;;5.11;63.97;101722.50;5088684;28;20023;-68
2022/04/11 04:13:03;;;;;;;17.83;14.48;;;;;;;5.09;64.39;101727.81;5090278;28;20036;-68
2022/04/11 04:15:30;;;;;;;20.08;14.63;;;;;;;4.95;64.81;101716.78;5070556;28;20047;-68
2022/04/11 04:17:58;;;;;;;16.63;14.02;;;;;;;5.01;64.79;101711.34;5070170;28;20032;-67
2022/04/11 04:20:26;;;;;;;15.77;14.07;;;;;;;5.00;64.10;101714.88;5070867;28;20446;-68
2022/04/11 04:22:54;;;;;;;16.30;14.60;;;;;;;4.89;64.83;101715.16;5071541;28;20072;-68
2022/04/11 04:25:19;;;;;;;16.67;14.88;;;;;;;4.80;65.23;101717.16;5090816;28;20394;-68
2022/04/11 04:27:47;;;;;;;17.10;15.23;;;;;;;4.66;65.17;101718.34;5090972;28;20031;-68
2022/04/11 04:30:15;;;;;;;17.42;14.57;;;;;;;4.69;64.59;101715.66;5076475;28;20028;-68
2022/04/11 04:32:48;;;;;;;16.23;14.63;;;;;;;4.52;65.31;101694.97;5037820;28;20028;-68
2022/04/11 04:35:13;;;;;;;17.90;14.73;;;;;;;4.57;65.37;101708.03;5084666;28;20032;-68
2022/04/11 04:37:39;;;;;;;17.55;14.55;;;;;;;4.61;65.58;101716.72;5069943;28;20039;-68
2022/04/11 04:40:05;;;;;;;16.40;14.80;;;;;;;4.51;65.52;101711.69;5080301;28;20024;-67
2022/04/11 04:42:31;;;;;;;16.88;15.25;;;;;;;4.63;65.53;101712.31;5084330;28;20028;-68
2022/04/11 04:44:59;;;;;;;16.35;14.75;;;;;;;4.62;65.34;101715.81;5070710;28;20123;-68
2022/04/11 04:47:28;;;;;;;16.50;14.80;;;;;;;4.60;65.65;101709.75;5079799;28;20028;-68
2022/04/11 04:49:53;;;;;;;18.85;14.55;;;;;;;4.58;65.28;101698.38;5066081;28;20036;-68
2022/04/11 04:52:21;;;;;;;17.20;15.13;;;;;;;4.60;65.47;101705.34;5090324;28;20464;-68
2022/04/11 04:54:46;;;;;;;17.33;15.55;;;;;;;4.52;65.72;101699.38;5088553;28;20486;-67
2022/04/11 04:57:12;;;;;;;18.20;14.07;;;;;;;4.57;65.56;101709.81;5086549;28;20032;-68
2022/04/11 04:59:40;;;;;;;15.90;14.38;;;;;;;4.49;65.34;101702.09;5090209;28;20716;-68
2022/04/11 05:02:05;;;;;;;17.88;15.30;;;;;;;4.54;65.40;101711.63;5082170;28;20059;-68
2022/04/11 05:04:31;;;;;;;20.20;16.05;;;;;;;4.53;65.83;101703.75;5075690;28;20073;-68
2022/04/11 05:06:56;;;;;;;18.00;15.25;;;;;;;4.40;66.18;101694.41;5084325;28;20036;-68
2022/04/11 05:09:22;;;;;;;19.33;15.23;;;;;;;4.47;65.59;101707.41;5074784;28;20050;-68
2022/04/11 05:11:47;;;;;;;18.88;15.25;;;;;;;4.44;66.21;101699.59;5067040;28;20028;-67
2022/04/11 05:14:17;;;;;;;17.95;15.63;;;;;;;4.49;66.32;101699.44;5081948;28;20487;-68
2022/04/11 05:16:47;;;;;;;21.95;15.02;;;;;;;4.47;66.19;101695.97;5078723;28;20107;-68
2022/04/11 05:19:13;;;;;;;17.98;15.88;;;;;;;4.52;66.80;101691.47;5069358;28;20028;-68
2022/04/11 05:21:39;;;;;;;16.80;15.10;;;;;;;4.48;66.23;101689.84;5085496;28;20067;-68
2022/04/11 05:24:06;;;;;;;20.75;15.75;;;;;;;4.50;66.56;101698.53;5069632;28;20531;-68
2022/04/11 05:26:34;;;;;;;21.00;15.98;;;;;;;4.46;66.88;101695.13;5069645;28;20089;-67
2022/04/11 05:29:00;;;;;;;18.45;16.35;;;;;;;4.55;66.61;101697.53;5070569;28;20032;-67
2022/04/11 05:31:25;;;;;;;17.88;16.10;;;;;;;4.52;66.83;101688.84;5087799;28;20130;-68
2022/04/11 05:33:51;;;;;;;19.60;15.93;;;;;;;4.63;66.04;101683.31;5057045;28;20035;-68
2022/04/11 05:36:20;;;;;;;17.77;15.93;;;;;;;4.68;66.67;101689.34;5053578;28;20044;-68
2022/04/11 05:38:46;;;;;;;19.70;16.45;;;;;;;4.63;67.04;101692.09;5072040;28;20510;-68
2022/04/11 05:41:14;;;;;;;17.10;15.30;;;;;;;4.65;66.39;101694.69;5077862;28;20024;-68
2022/04/11 05:43:40;;;;;;;19.90;15.93;;;;;;;4.78;66.00;101691.69;5072797;28;20025;-68
2022/04/11 05:46:06;;;;;;;17.98;16.00;;;;;;;4.73;65.98;101679.53;5070302;28;20025;-68
2022/04/11 05:48:35;;;;;;;21.00;15.85;;;;;;;4.94;65.16;101689.53;5077893;28;20059;-68
2022/04/11 05:51:01;;;;;;;20.30;14.90;;;;;;;5.06;64.29;101693.63;5069978;28;20590;-68
2022/04/11 05:53:27;;;;;;;20.15;15.10;;;;;;;5.23;64.02;101695.78;5071693;28;20120;-68
2022/04/11 05:55:52;;;;;;;16.58;14.45;;;;;;;5.38;63.39;101692.75;5069824;28;20123;-67
2022/04/11 05:58:20;;;;;;;19.27;15.45;;;;;;;5.45;64.21;101693.44;5072458;28;20074;-68
2022/04/11 06:00:46;;;;;;;19.48;14.75;;;;;;;5.57;63.30;101694.88;5073940;28;20498;-67
2022/04/11 06:03:12;;;;;;;17.23;14.20;;;;;;;5.72;62.55;101688.28;5069028;28;20032;-68
2022/04/11 06:05:38;;;;;;;16.67;14.82;;;;;;;5.77;62.43;101676.69;5077711;28;20197;-68
2022/04/11 06:08:06;;;;;;;17.73;13.75;;;;;;;5.83;62.32;101684.41;5082269;28;20032;-68
2022/04/11 06:10:31;;;;;;;21.17;14.60;;;;;;;5.94;61.37;101685.88;5076424;28;20028;-68
2022/04/11 06:12:57;;;;;;;16.08;14.00;;;;;;;5.98;60.88;101691.03;5072267;28;20031;-68
2022/04/11 06:15:26;;;;;;;18.85;13.88;;;;;;;6.02;60.73;101686.53;5077876;28;20039;-68
2022/04/11 06:17:51;;;;;;;17.50;14.40;;;;;;;6.07;60.33;101690.75;5079650;28;20037;-68
2022/04/11 06:20:18;;;;;;;20.98;14.13;;;;;;;6.23;61.08;101703.47;5061272;28;20055;-68
2022/04/11 06:22:45;;;;;;;14.57;13.05;;;;;;;6.30;59.54;101691.81;5078618;28;20036;-68
2022/04/11 06:25:13;;;;;;;14.88;13.07;;;;;;;6.41;60.02;101696.75;5088323;28;20479;-67
2022/04/11 06:27:39;;;;;;;18.13;13.20;;;;;;;6.51;59.48;101693.78;5094688;28;20389;-68
2022/04/11 06:30:05;;;;;;;17.70;12.98;;;;;;;6.59;58.92;101691.75;5076004;28;20115;-67
2022/04/11 06:32:32;;;;;;;16.65;13.55;;;;;;;6.59;60.34;101675.88;5073735;28;20031;-67
2022/04/11 06:34:57;;;;;;;17.00;12.60;;;;;;;6.82;59.33;101693.63;5089875;28;20114;-67
2022/04/11 06:37:24;;;;;;;16.42;12.15;;;;;;;6.89;58.33;101693.41;5079405;28;20554;-67
2022/04/11 06:39:50;;;;;;;16.10;13.30;;;;;;;6.96;57.86;101694.91;5073384;28;20112;-67
2022/04/11 06:42:21;;;;;;;18.40;11.52;;;;;;;7.07;57.45;101695.41;5072700;28;20391;-67
2022/04/11 06:44:47;;;;;;;14.27;11.57;;;;;;;7.15;56.88;101701.31;5085391;28;20427;-67
2022/04/11 06:47:13;;;;;;;16.77;12.48;;;;;;;7.32;57.15;101689.25;5073761;28;20063;-67
2022/04/11 06:49:39;;;;;;;15.15;11.23;;;;;;;7.44;56.28;101692.34;5073297;28;20052;-67
2022/04/11 06:52:12;;;;;;;15.27;11.45;;;;;;;7.61;55.86;101696.13;5073877;28;20032;-67
2022/04/11 06:54:38;;;;;;;14.90;11.45;;;;;;;7.78;55.54;101698.16;5089394;28;20062;-68
2022/04/11 06:57:04;;;;;;;16.77;11.57;;;;;;;7.87;54.87;101697.81;5079893;28;20111;-67
2022/04/11 06:59:30;;;;;;;14.43;12.02;;;;;;;8.02;54.78;101699.00;5055473;28;20475;-67
2022/04/11 07:01:55;;;;;;;16.15;10.65;;;;;;;8.12;53.83;101698.59;5073110;28;20049;-68
2022/04/11 07:04:24;;;;;;;15.15;11.07;;;;;;;8.13;53.21;101699.44;5073058;28;20071;-67
2022/04/11 07:06:50;;;;;;;14.73;11.00;;;;;;;8.28;53.14;101706.78;5078114;28;20028;-68
2022/04/11 07:09:16;;;;;;;13.00;9.68;;;;;;;8.37;52.36;101708.22;5078332;28;20110;-68
2022/04/11 07:11:41;;;;;;;16.30;9.93;;;;;;;8.47;52.19;101706.97;5080012;28;20078;-69
2022/04/11 07:14:12;;;;;;;14.60;10.02;;;;;;;8.53;51.89;101696.13;5083664;28;20044;-68
2022/04/11 07:16:37;;;;;;;17.30;9.73;;;;;;;8.63;52.28;101693.94;5080695;28;20062;-68
2022/04/11 07:19:03;;;;;;;13.60;9.45;;;;;;;8.79;52.15;101687.03;5077089;28;20479;-68
2022/04/11 07:21:28;;;;;;;11.10;9.43;;;;;;;8.90;50.78;101689.25;5084059;28;20437;-68
2022/04/11 07:23:56;;;;;;;14.13;9.07;;;;;;;8.96;50.45;101678.38;5083578;28;20634;-68
2022/04/11 07:26:22;;;;;;;11.00;8.30;;;;;;;9.08;50.14;101677.00;5072492;28;20041;-68
2022/04/11 07:28:51;;;;;;;11.70;8.35;;;;;;;9.24;50.40;101678.06;5079376;28;20541;-68
2022/04/11 07:31:16;;;;;;;11.50;7.50;;;;;;;9.38;49.00;101680.06;5067298;28;20040;-68
2022/04/11 07:33:42;;;;;;;15.05;8.57;;;;;;;9.55;49.45;101671.34;5079068;28;20024;-68
2022/04/11 07:36:07;;;;;;;15.38;7.63;;;;;;;9.65;48.70;101672.69;5062081;28;20480;-68
2022/04/11 07:38:33;;;;;;;10.32;6.90;;;;;;;9.79;48.43;101677.34;5080190;28;20499;-68
2022/04/11 07:40:58;;;;;;;11.25;6.85;;;;;;;9.82;47.61;101673.69;5075281;28;20031;-67
2022/04/11 07:43:24;;;;;;;13.80;7.72;;;;;;;9.92;48.18;101670.53;5075797;28;20132;-68
2022/04/11 07:45:50;;;;;;;12.70;6.90;;;;;;;10.02;46.71;101671.78;5070312;28;20051;-68
2022/04/11 07:48:15;;;;;;;10.93;6.60;;;;;;;10.15;47.21;101669.44;5071023;28;20039;-68
2022/04/11 07:50:42;;;;;;;11.63;7.43;;;;;;;10.24;46.74;101671.66;5076215;28;20035;-68
2022/04/11 07:53:07;;;;;;;11.35;7.13;;;;;;;10.40;46.34;101669.13;5081435;28;20399;-68
2022/04/11 07:55:34;;;;;;;14.57;6.95;;;;;;;10.50;45.81;101660.69;5099528;28;20032;-68
2022/04/11 07:57:59;;;;;;;7.88;6.38;;;;;;;10.53;45.30;101652.56;5054002;28;20115;-68
2022/04/11 08:00:26;;;;;;;11.63;6.88;;;;;;;10.65;45.24;101658.13;5068551;28;20193;-68
2022/04/11 08:02:56;;;;;;;10.50;7.22;;;;;;;10.76;45.20;101656.72;5078229;28;20480;-68
2022/04/11 08:05:22;;;;;;;11.00;6.65;;;;;;;10.83;44.88;101655.47;5074371;28;20354;-68
2022/04/11 08:07:49;;;;;;;9.50;6.35;;;;;;;10.95;45.08;101636.22;5072430;28;20024;-67
2022/04/11 08:10:16;;;;;;;11.48;6.00;;;;;;;11.02;44.04;101642.94;5069516;28;20395;-68
2022/04/11 08:13:00;;;;;;;10.18;6.57;;;;;;;11.18;44.72;101639.47;5071285;28;20017;-68
2022/04/11 08:15:32;;;;;;;9.65;6.28;;;;;;;11.29;44.54;101631.75;5070414;28;20081;-68
2022/04/11 08:17:59;;;;;;;9.82;5.82;;;;;;;11.40;43.93;101641.84;5077356;28;20055;-68
2022/04/11 08:20:25;;;;;;;9.77;6.63;;;;;;;11.52;43.33;101631.38;5068213;28;20443;-68
2022/04/11 08:22:51;;;;;;;8.90;6.13;;;;;;;11.66;43.09;101632.44;5070415;28;20024;-68
2022/04/11 08:25:17;;;;;;;7.28;6.20;;;;;;;11.68;42.43;101627.91;5071492;28;20024;-68
2022/04/11 08:27:43;;;;;;;9.07;6.70;;;;;;;11.70;42.71;101626.84;5087747;28;20029;-68
2022/04/11 08:30:10;;;;;;;10.38;6.60;;;;;;;11.73;42.54;101631.16;5070666;28;20036;-67
2022/04/11 08:32:49;;;;;;;8.95;6.32;;;;;;;11.78;42.42;101621.97;5050208;28;20028;-68
2022/04/11 08:35:20;;;;;;;6.75;5.75;;;;;;;11.91;42.28;101622.19;5070901;28;20024;-68
2022/04/11 08:37:46;;;;;;;9.10;6.22;;;;;;;12.18;41.97;101614.41;5069768;28;20028;-68
2022/04/11 08:40:13;;;;;;;9.43;5.55;;;;;;;12.17;41.25;101625.16;5069268;28;20381;-68
2022/04/11 08:42:42;;;;;;;9.90;6.22;;;;;;;12.21;42.11;101619.56;5066953;28;20514;-68
2022/04/11 08:45:08;;;;;;;;;;;;;;;12.45;42.98;101619.94;5079798;28;20023;-68
2022/04/11 08:47:34;;;;;;;9.95;5.93;;;;;;;12.56;40.73;101626.44;5076917;28;19923;-68
2022/04/11 08:50:04;;;;;;;11.00;5.93;;;;;;;12.77;39.94;101625.19;5071206;28;20021;-68
2022/04/11 08:52:30;;;;;;;9.32;4.90;;;;;;;12.71;39.67;101618.41;5069480;28;20375;-68
2022/04/11 08:54:59;;;;;;;8.50;4.97;;;;;;;12.84;39.17;101617.69;5072390;28;20123;-68
2022/04/11 08:57:24;;;;;;;8.40;4.60;;;;;;;12.91;39.20;101614.56;5074188;28;20035;-67
2022/04/11 08:59:50;;;;;;;9.50;4.55;;;;;;;12.98;38.82;101609.69;5073868;28;20549;-68
2022/04/11 09:02:16;;;;;;;6.35;4.60;;;;;;;13.01;38.18;101617.50;5069943;28;20057;-69
2022/04/11 09:04:51;;;;;;;8.55;4.47;;;;;;;13.04;38.49;101621.81;5068487;28;20048;-68
2022/04/11 09:07:17;;;;;;;8.25;4.90;;;;;;;13.04;38.30;101611.97;5067546;28;20028;-68
2022/04/11 09:09:45;;;;;;;9.10;4.97;;;;;;;13.19;38.42;101623.53;5068750;28;20025;-68
2022/04/11 09:12:15;;;;;;;9.35;5.05;;;;;;;13.24;38.63;101626.78;5076834;28;20107;-68
2022/04/11 09:14:44;;;;;;;9.25;4.78;;;;;;;13.30;37.90;101626.44;5070577;28;20028;-68
2022/04/11 09:17:10;;;;;;;8.52;4.93;;;;;;;13.38;37.40;101613.47;5074511;28;20108;-68
2022/04/11 09:19:38;;;;;;;8.00;4.72;;;;;;;13.58;37.66;101608.66;5072629;28;20017;-68
2022/04/11 09:22:05;;;;;;;8.00;4.05;;;;;;;13.70;37.38;101613.22;5070089;28;20032;-68
2022/04/11 09:24:31;;;;;;;6.65;4.40;;;;;;;13.90;36.96;101598.56;5080078;28;20021;-69
2022/04/11 09:26:57;;;;;;;6.70;4.20;;;;;;;14.13;36.09;101593.56;5071425;28;20020;-68
2022/04/11 09:29:25;;;;;;;8.57;4.18;;;;;;;14.18;35.40;101592.28;5080948;28;20070;-68
2022/04/11 09:31:51;;;;;;;7.43;5.07;;;;;;;14.30;36.56;101579.91;5067459;28;20596;-69
2022/04/11 09:34:19;;;;;;;8.80;4.10;;;;;;;14.46;35.90;101585.94;5069725;28;20062;-68
2022/04/11 09:37:04;;;;;;;6.07;3.97;;;;;;;14.64;35.45;101578.50;5092385;28;20070;-69
2022/04/11 09:39:36;;;;;;;7.18;4.10;;;;;;;14.67;34.73;101572.06;5070963;28;20040;-68
2022/04/11 09:42:05;;;;;;;5.22;4.13;;;;;;;14.58;34.66;101581.59;5068806;28;20395;-68
2022/04/11 09:44:33;;;;;;;5.22;3.53;;;;;;;14.62;33.93;101576.88;5092307;28;20122;-68
2022/04/11 09:47:18;;;;;;;6.78;4.05;;;;;;;14.66;34.63;101567.69;5100699;28;20046;-68
2022/04/11 09:49:44;;;;;;;5.35;3.78;;;;;;;14.79;33.65;101573.06;5102593;28;20059;-68
2022/04/11 09:52:12;;;;;;;6.30;3.70;;;;;;;14.73;32.76;101571.66;5084181;28;20462;-69
2022/04/11 09:54:50;;;;;;;4.90;4.00;;;;;;;14.67;33.83;101558.69;5076138;28;20036;-69
2022/04/11 09:57:17;;;;;;;8.48;3.63;;;;;;;14.53;32.39;101557.84;5095975;28;20100;-69
2022/04/11 09:59:45;;;;;;;6.80;3.47;;;;;;;14.59;32.60;101564.59;5095868;28;20036;-69
2022/04/11 10:02:11;;;;;;;9.23;4.30;;;;;;;14.56;32.65;101556.75;5088149;28;20063;-69
2022/04/11 10:04:39;;;;;;;5.45;3.45;;;;;;;14.75;33.16;101551.84;5070877;28;20110;-69
2022/04/11 10:07:09;;;;;;;7.03;3.30;;;;;;;14.86;31.25;101555.59;5083896;28;20122;-69
2022/04/11 10:09:35;;;;;;;4.78;3.72;;;;;;;14.96;32.39;101560.19;5068550;28;20012;-68
2022/04/11 10:12:01;;;;;;;6.43;3.60;;;;;;;15.09;32.45;101553.97;5071292;28;20027;-68
2022/04/11 10:14:28;;;;;;;6.47;3.38;;;;;;;15.19;32.06;101552.38;5069753;28;20044;-68
2022/04/11 10:17:00;;;;;;;7.32;3.97;;;;;;;15.28;32.55;101549.03;5070278;28;20028;-68
2022/04/11 10:19:31;;;;;;;4.70;3.50;;;;;;;15.46;32.10;101546.84;5085581;28;20028;-68
2022/04/11 10:22:04;;;;;;;4.47;3.50;;;;;;;15.50;30.88;101551.03;5090406;28;20059;-68
2022/04/11 10:24:52;;;;;;;5.82;3.42;;;;;;;15.52;31.97;101549.06;5071114;28;20028;-68
2022/04/11 10:27:27;;;;;;;7.70;4.03;;;;;;;15.57;31.18;101536.19;5071456;28;20429;-69
2022/04/11 10:30:26;;;;;;;7.20;3.95;;;;;;;15.88;31.96;101526.78;5088532;28;20110;-68
2022/04/11 10:32:54;;;;;;;6.85;3.88;;;;;;;16.15;31.53;101535.53;5068903;28;20545;-68
2022/04/11 10:35:39;;;;;;;6.95;4.18;;;;;;;16.41;31.81;101533.53;5055588;28;20041;-68
2022/04/11 10:38:09;;;;;;;10.95;4.50;;;;;;;16.43;30.91;101535.16;5067806;28;20506;-68
2022/04/11 10:40:37;;;;;;;4.55;3.95;;;;;;;16.57;31.00;101534.94;5066922;28;20033;-68
2022/04/11 10:43:07;;;;;;;7.82;3.90;;;;;;;16.77;31.04;101536.13;5067405;28;20426;-68
2022/04/11 10:45:59;;;;;;;11.20;4.38;;;;;;;16.88;30.81;101537.94;5051470;28;20512;-68
2022/04/11 10:48:54;;;;;;;6.53;4.05;;;;;;;16.92;30.63;101528.69;5072853;28;20142;-68
2022/04/11 10:51:20;;;;;;;6.60;3.83;;;;;;;16.75;30.89;101521.06;5064444;28;20059;-68
2022/04/11 10:54:16;;;;;;;7.60;4.05;;;;;;;16.97;30.78;101518.44;5088072;28;20077;-68
2022/04/11 10:56:55;;;;;;;4.78;3.95;;;;;;;17.14;30.74;101510.84;5061224;28;20074;-69
2022/04/11 11:00:12;;;;;;;7.95;3.92;;;;;;;17.31;30.58;101507.66;5080418;28;20024;-69
2022/04/11 11:02:52;;;;;;;8.38;4.00;;;;;;;17.31;30.31;101504.97;5091844;28;20047;-69
2022/04/11 11:05:35;;;;;;;5.88;3.90;;;;;;;17.18;30.41;101493.50;5094169;28;20032;-69
2022/04/11 11:08:12;;;;;;;7.13;4.28;;;;;;;17.33;30.85;101486.03;5079594;28;20028;-68
2022/04/11 11:10:52;;;;;;;8.85;3.70;;;;;;;17.38;30.77;101479.28;5071884;28;20048;-68
2022/04/11 11:13:38;;;;;;;9.10;4.43;;;;;;;17.51;29.47;101486.34;5099109;28;20021;-68
2022/04/11 11:16:03;;;;;;;6.55;3.65;;;;;;;17.66;29.45;101477.00;5070556;28;20029;-68
2022/04/11 11:18:51;;;;;;;5.05;3.05;;;;;;;17.66;27.70;101482.41;5078801;28;20527;-68
2022/04/11 11:21:20;;;;;;;5.15;3.33;;;;;;;17.56;27.23;101473.34;5075159;28;20028;-69
2022/04/11 11:24:03;;;;;;;8.98;3.35;;;;;;;18.10;28.57;101453.63;5070066;28;20079;-69